Cianorte, Brazil
Current Conditions -  °F | °C
As of 3:00 PM on Sunday 21 Dec 2014 (Local Time) from SBMG Reporting Station
Broken Clouds Broken Clouds  
Wind Chill: 86°   Ceiling: 3000
Heat Index: 92°   Visibility: 6mi
Dew Point: 72°   Wind: 17mph
Humidity: 62%   Direction: 320°NW
Pressure: 29.77"   Gusts: 31mph
Location:  23.65°S, 52.62°W
Report Text: SBMG 211700Z 32015G27KT 9999 BKN030 FEW045TCU BKN080 30/22 Q1008
Loading
Personal Weather Stations






























Interactive Weather Map New forecast layout! Learn more

10-Day Weather Forecast

Advertisements
Track Severe Weather on mobile